createdAt,value
2023-02-06T00:01:50.448Z,7.25
2023-02-06T00:04:17.216Z,7.30
2023-02-06T00:06:43.857Z,6.75
2023-02-06T00:09:10.875Z,7.32
2023-02-06T00:11:37.542Z,7.40
2023-02-06T00:14:04.139Z,7.22
2023-02-06T00:16:33.135Z,6.22
2023-02-06T00:19:00.044Z,8.55
2023-02-06T00:21:28.128Z,5.22
2023-02-06T00:23:56.240Z,5.43
2023-02-06T00:26:23.805Z,5.85
2023-02-06T00:28:50.491Z,5.93
2023-02-06T00:31:17.919Z,5.82
2023-02-06T00:33:44.622Z,6.03
2023-02-06T00:36:11.622Z,5.20
2023-02-06T00:38:38.341Z,6.50
2023-02-06T00:41:05.293Z,5.30
2023-02-06T00:43:32.120Z,6.97
2023-02-06T00:45:58.800Z,6.07
2023-02-06T00:48:25.777Z,5.18
2023-02-06T00:50:53.724Z,5.38
2023-02-06T00:53:20.852Z,5.50
2023-02-06T00:55:47.442Z,5.45
2023-02-06T00:58:14.112Z,5.00
2023-02-06T01:00:40.734Z,4.78
2023-02-06T01:03:07.316Z,4.57
2023-02-06T01:05:34.219Z,4.97
2023-02-06T01:08:02.863Z,5.53
2023-02-06T01:10:30.898Z,5.47
2023-02-06T01:12:57.568Z,6.53
2023-02-06T01:15:24.188Z,5.68
2023-02-06T01:17:51.053Z,5.20
2023-02-06T01:20:17.706Z,5.60
2023-02-06T01:22:44.404Z,5.15
2023-02-06T01:25:10.986Z,5.43
2023-02-06T01:27:38.314Z,6.07
2023-02-06T01:30:06.470Z,5.65
2023-02-06T01:32:36.469Z,6.85
2023-02-06T01:35:03.062Z,6.15
2023-02-06T01:37:30.530Z,5.18
2023-02-06T01:39:57.178Z,5.13
2023-02-06T01:42:24.043Z,6.43
2023-02-06T01:45:33.410Z,5.88
2023-02-06T01:48:03.710Z,5.15
2023-02-06T01:50:33.775Z,6.75
2023-02-06T01:53:01.159Z,5.53
2023-02-06T01:55:27.857Z,5.10
2023-02-06T01:57:54.467Z,4.90
2023-02-06T02:00:21.117Z,4.60
2023-02-06T02:02:49.095Z,5.05
2023-02-06T02:05:17.259Z,4.95
2023-02-06T02:08:01.119Z,4.80
2023-02-06T02:10:29.811Z,5.00
2023-02-06T02:12:56.614Z,4.95
2023-02-06T02:15:36.256Z,6.13
2023-02-06T02:18:11.597Z,4.30
2023-02-06T02:20:41.165Z,4.47
2023-02-06T02:23:26.252Z,5.38
2023-02-06T02:26:06.634Z,4.72
2023-02-06T02:28:45.221Z,4.78
2023-02-06T02:31:23.964Z,4.85
2023-02-06T02:33:56.293Z,4.15
2023-02-06T02:36:27.735Z,4.95
2023-02-06T02:38:59.061Z,5.78
2023-02-06T02:41:29.531Z,6.45
2023-02-06T02:44:08.153Z,5.93
2023-02-06T02:46:41.092Z,5.65
2023-02-06T02:49:11.536Z,6.45
2023-02-06T02:51:38.876Z,7.47
2023-02-06T02:54:05.492Z,6.65
2023-02-06T02:56:33.644Z,5.15
2023-02-06T02:59:08.061Z,5.10
2023-02-06T03:01:42.998Z,4.47
2023-02-06T03:04:14.593Z,4.60
2023-02-06T03:07:07.016Z,4.75
2023-02-06T03:09:36.217Z,4.22
2023-02-06T03:12:13.245Z,5.35
2023-02-06T03:14:46.212Z,4.15
2023-02-06T03:17:16.006Z,4.55
2023-02-06T03:19:48.122Z,4.15
2023-02-06T03:22:15.546Z,4.63
2023-02-06T03:24:42.123Z,5.10
2023-02-06T03:27:11.866Z,4.03
2023-02-06T03:29:39.637Z,4.15
2023-02-06T03:32:13.235Z,4.38
2023-02-06T03:34:51.893Z,4.78
2023-02-06T03:37:18.523Z,4.30
2023-02-06T03:39:45.130Z,5.43
2023-02-06T03:42:12.687Z,5.25
2023-02-06T03:44:42.208Z,4.85
2023-02-06T03:47:10.681Z,5.50
2023-02-06T03:49:39.842Z,5.45
2023-02-06T03:52:09.235Z,5.28
2023-02-06T03:54:38.394Z,5.05
2023-02-06T03:57:06.590Z,5.80
2023-02-06T03:59:33.344Z,6.63
2023-02-06T04:02:03.024Z,5.25
2023-02-06T04:04:32.923Z,5.80
2023-02-06T04:07:02.582Z,5.43
2023-02-06T04:09:29.162Z,5.53
2023-02-06T04:11:55.709Z,5.45
2023-02-06T04:14:22.285Z,5.70
2023-02-06T04:16:48.929Z,5.07
2023-02-06T04:19:15.696Z,5.05
2023-02-06T04:21:42.398Z,5.18
2023-02-06T04:24:08.974Z,5.95
2023-02-06T04:26:35.546Z,4.90
2023-02-06T04:29:02.106Z,5.10
2023-02-06T04:31:28.720Z,4.13
2023-02-06T04:33:55.349Z,4.03
2023-02-06T04:36:21.934Z,4.15
2023-02-06T04:38:48.476Z,4.45
2023-02-06T04:41:15.038Z,4.30
2023-02-06T04:43:41.641Z,4.50
2023-02-06T04:46:08.243Z,3.70
2023-02-06T04:48:34.867Z,5.28
2023-02-06T04:51:01.441Z,4.13
2023-02-06T04:53:28.052Z,4.55
2023-02-06T04:55:58.446Z,4.88
2023-02-06T04:58:24.984Z,4.80
2023-02-06T05:00:51.574Z,5.22
2023-02-06T05:03:18.105Z,4.93
2023-02-06T05:05:45.111Z,4.95
2023-02-06T05:08:11.673Z,4.78
2023-02-06T05:10:38.298Z,4.53
2023-02-06T05:13:04.901Z,5.05
2023-02-06T05:15:31.619Z,4.68
2023-02-06T05:17:58.188Z,4.50
2023-02-06T05:20:24.794Z,4.15
2023-02-06T05:22:51.387Z,5.68
2023-02-06T05:25:17.992Z,5.80
2023-02-06T05:27:44.588Z,7.32
2023-02-06T05:30:12.226Z,7.25
2023-02-06T05:32:38.823Z,7.00
2023-02-06T05:35:06.068Z,7.05
2023-02-06T05:37:32.693Z,7.32
2023-02-06T05:40:00.112Z,6.28
2023-02-06T05:42:26.797Z,6.18
2023-02-06T05:44:53.366Z,6.30
2023-02-06T05:47:19.907Z,6.05
2023-02-06T05:49:48.277Z,7.28
2023-02-06T05:54:41.917Z,5.93
2023-02-06T05:57:08.491Z,6.57
2023-02-06T05:59:35.051Z,7.35
2023-02-06T06:02:02.445Z,5.82
2023-02-06T06:04:29.145Z,6.18
2023-02-06T06:06:56.362Z,5.20
2023-02-06T06:09:22.989Z,5.18
2023-02-06T06:11:51.287Z,6.18
2023-02-06T06:14:18.282Z,6.82
2023-02-06T06:16:44.862Z,5.88
2023-02-06T06:19:11.444Z,5.78
2023-02-06T06:21:38.139Z,5.95
2023-02-06T06:24:04.939Z,5.57
2023-02-06T06:26:31.795Z,5.20
2023-02-06T06:28:58.401Z,5.60
2023-02-06T06:31:25.041Z,5.47
2023-02-06T06:33:52.787Z,5.68
2023-02-06T06:36:19.353Z,5.85
2023-02-06T06:38:46.410Z,7.22
2023-02-06T06:41:13.017Z,6.90
2023-02-06T06:43:39.704Z,6.00
2023-02-06T06:46:06.776Z,6.82
2023-02-06T06:48:33.549Z,7.70
2023-02-06T06:51:00.148Z,8.07
2023-02-06T06:53:26.706Z,7.97
2023-02-06T06:55:53.291Z,8.75
2023-02-06T06:58:19.973Z,8.68
2023-02-06T07:00:47.158Z,8.57
2023-02-06T07:03:13.839Z,8.93
2023-02-06T07:05:41.402Z,7.32
2023-02-06T07:08:08.018Z,6.83
2023-02-06T07:10:34.565Z,6.47
2023-02-06T07:13:01.157Z,6.40
2023-02-06T07:15:27.744Z,6.97
2023-02-06T07:17:54.313Z,5.80
2023-02-06T07:20:20.989Z,5.82
2023-02-06T07:22:49.279Z,5.80
2023-02-06T07:25:18.315Z,6.25
2023-02-06T07:27:44.870Z,5.80
2023-02-06T07:30:11.889Z,6.55
2023-02-06T07:32:38.944Z,6.60
2023-02-06T07:35:06.570Z,6.35
2023-02-06T07:37:33.464Z,5.50
2023-02-06T07:40:00.021Z,6.18
2023-02-06T07:42:26.603Z,6.05
2023-02-06T07:44:53.262Z,6.28
2023-02-06T07:47:19.876Z,5.80
2023-02-06T07:49:46.590Z,7.38
2023-02-06T07:52:13.558Z,5.97
2023-02-06T07:54:40.114Z,5.97
2023-02-06T07:57:06.746Z,6.80
2023-02-06T07:59:33.405Z,6.13
2023-02-06T08:02:01.114Z,6.40
2023-02-06T08:04:29.493Z,7.60
2023-02-06T08:09:22.703Z,6.78
2023-02-06T08:11:49.240Z,7.30
2023-02-06T08:14:15.795Z,7.38
2023-02-06T08:16:42.471Z,8.77
2023-02-06T08:19:10.974Z,8.85
2023-02-06T08:21:37.919Z,8.00
2023-02-06T08:24:04.790Z,8.43
2023-02-06T08:26:31.983Z,7.50
2023-02-06T08:29:01.814Z,7.05
2023-02-06T08:31:35.641Z,7.47
2023-02-06T08:34:03.189Z,7.78
2023-02-06T08:36:31.940Z,8.37
2023-02-06T08:38:59.869Z,8.70
2023-02-06T08:41:28.772Z,7.85
2023-02-06T08:43:57.535Z,8.80
2023-02-06T08:46:25.716Z,8.43
2023-02-06T08:48:56.810Z,8.80
2023-02-06T08:51:23.636Z,9.90
2023-02-06T08:53:50.239Z,9.75
2023-02-06T08:56:16.787Z,8.50
2023-02-06T08:58:43.370Z,9.63
2023-02-06T09:01:19.504Z,9.98
2023-02-06T09:03:46.808Z,9.10
2023-02-06T09:06:14.892Z,8.38
2023-02-06T09:08:42.324Z,8.48
2023-02-06T09:11:15.660Z,7.82
2023-02-06T09:13:43.813Z,9.40
2023-02-06T09:16:11.716Z,9.25
2023-02-06T09:18:38.433Z,11.85
2023-02-06T09:21:16.487Z,10.48
2023-02-06T09:23:45.568Z,9.85
2023-02-06T09:26:23.126Z,11.25
2023-02-06T09:28:55.094Z,10.27
2023-02-06T09:31:22.087Z,11.18
2023-02-06T09:33:48.815Z,9.95
2023-02-06T09:36:17.640Z,13.70
2023-02-06T09:38:47.054Z,11.55
2023-02-06T09:41:29.136Z,10.90
2023-02-06T09:43:58.883Z,10.55
2023-02-06T09:46:28.723Z,11.52
2023-02-06T09:48:56.240Z,11.25
2023-02-06T09:51:40.120Z,12.37
2023-02-06T09:54:25.383Z,11.27
2023-02-06T09:57:02.022Z,12.73
2023-02-06T09:59:39.217Z,12.05
2023-02-06T10:02:24.389Z,11.68
2023-02-06T10:05:18.765Z,11.30
2023-02-06T10:07:48.272Z,13.00
2023-02-06T10:10:21.754Z,12.98
2023-02-06T10:13:05.549Z,12.93
2023-02-06T10:15:37.320Z,13.65
2023-02-06T10:18:09.271Z,13.38
2023-02-06T10:20:43.466Z,12.80
2023-02-06T10:23:23.003Z,11.25
2023-02-06T10:26:00.290Z,11.68
2023-02-06T10:28:29.155Z,11.73
2023-02-06T10:31:14.050Z,12.95
2023-02-06T10:34:08.625Z,10.95
2023-02-06T10:37:06.473Z,13.45
2023-02-06T10:40:04.812Z,11.30
2023-02-06T10:42:40.552Z,10.77
2023-02-06T10:45:25.579Z,11.63
2023-02-06T10:48:01.772Z,10.15
2023-02-06T10:50:40.373Z,10.65
2023-02-06T10:53:16.259Z,10.98
2023-02-06T10:55:49.845Z,10.85
2023-02-06T10:58:20.770Z,9.88
2023-02-06T11:00:48.556Z,10.80
2023-02-06T11:03:20.199Z,10.50
2023-02-06T11:05:48.061Z,10.57
2023-02-06T11:08:14.646Z,9.80
2023-02-06T11:10:41.370Z,10.60
2023-02-06T11:13:15.371Z,12.05
2023-02-06T11:16:02.103Z,12.38
2023-02-06T11:18:37.474Z,14.00
2023-02-06T11:21:04.213Z,14.77
2023-02-06T11:23:34.673Z,12.85
2023-02-06T11:26:22.108Z,15.18
2023-02-06T11:28:58.323Z,13.55
2023-02-06T11:31:43.137Z,12.60
2023-02-06T11:34:21.210Z,11.75
2023-02-06T11:36:52.502Z,13.40
2023-02-06T11:39:24.092Z,11.07
2023-02-06T11:41:57.823Z,11.85
2023-02-06T11:44:26.102Z,10.50
2023-02-06T11:46:53.039Z,12.10
2023-02-06T11:49:19.543Z,11.95
2023-02-06T11:51:52.382Z,11.52
2023-02-06T11:54:31.372Z,11.73
2023-02-06T11:57:11.638Z,11.23
2023-02-06T11:59:51.121Z,9.77
2023-02-06T12:02:29.999Z,11.68
2023-02-06T12:05:02.237Z,8.82
2023-02-06T12:07:33.763Z,9.98
2023-02-06T12:10:02.854Z,7.50
2023-02-06T12:12:42.560Z,7.85
2023-02-06T12:15:44.969Z,8.50
2023-02-06T12:18:22.487Z,8.00
2023-02-06T12:20:54.714Z,7.25
2023-02-06T12:23:28.217Z,7.03
2023-02-06T12:25:58.052Z,7.22
2023-02-06T12:28:32.843Z,7.72
2023-02-06T12:31:05.009Z,7.82
2023-02-06T12:33:38.269Z,6.97
2023-02-06T12:36:12.124Z,7.40
2023-02-06T12:38:47.553Z,7.10
2023-02-06T12:41:40.406Z,6.72
2023-02-06T12:44:14.172Z,6.85
2023-02-06T12:46:42.008Z,7.95
2023-02-06T12:49:28.622Z,6.65
2023-02-06T12:52:01.918Z,7.18
2023-02-06T12:54:37.788Z,7.03
2023-02-06T12:57:14.505Z,6.75
2023-02-06T13:00:13.676Z,6.25
2023-02-06T13:03:17.036Z,7.22
2023-02-06T13:06:20.315Z,6.95
2023-02-06T13:08:47.090Z,6.53
2023-02-06T13:11:35.639Z,6.68
2023-02-06T13:14:23.498Z,7.22
2023-02-06T13:16:57.563Z,6.43
2023-02-06T13:19:47.203Z,6.13
2023-02-06T13:22:14.475Z,6.38
2023-02-06T13:24:43.369Z,6.70
2023-02-06T13:27:15.597Z,6.15
2023-02-06T13:29:48.844Z,6.97
2023-02-06T13:32:15.527Z,6.22
2023-02-06T13:34:51.008Z,6.45
2023-02-06T13:37:43.460Z,6.88
2023-02-06T13:40:22.084Z,7.40
2023-02-06T13:43:13.984Z,7.70
2023-02-06T13:45:47.198Z,6.00
2023-02-06T13:48:46.612Z,6.75
2023-02-06T13:51:35.011Z,7.15
2023-02-06T13:54:16.487Z,6.05
2023-02-06T13:57:10.775Z,5.47
2023-02-06T13:59:47.127Z,5.22
2023-02-06T14:02:17.139Z,5.78
2023-02-06T14:04:45.651Z,6.38
2023-02-06T14:10:10.516Z,5.55
2023-02-06T14:13:08.274Z,5.05
2023-02-06T14:16:10.662Z,5.72
2023-02-06T14:19:04.422Z,5.55
2023-02-06T14:21:52.758Z,6.07
2023-02-06T14:27:13.258Z,6.20
2023-02-06T14:29:48.738Z,7.00
2023-02-06T14:32:54.308Z,8.38
2023-02-06T14:35:52.364Z,6.82
2023-02-06T14:38:44.522Z,5.88
2023-02-06T14:41:11.345Z,5.97
2023-02-06T14:43:41.023Z,6.03
2023-02-06T14:46:12.412Z,6.18
2023-02-06T14:48:41.796Z,6.57
2023-02-06T14:51:15.415Z,5.93
2023-02-06T14:53:52.594Z,6.10
2023-02-06T14:56:31.919Z,4.95
2023-02-06T14:59:13.764Z,5.63
2023-02-06T15:01:41.780Z,6.10
2023-02-06T15:04:14.079Z,6.00
2023-02-06T15:06:43.650Z,5.00
2023-02-06T15:09:25.960Z,6.22
2023-02-06T15:11:56.423Z,4.05
2023-02-06T15:14:31.459Z,5.65
2023-02-06T15:16:59.869Z,5.25
2023-02-06T15:19:29.278Z,5.32
2023-02-06T15:22:10.258Z,6.55
2023-02-06T15:24:54.542Z,5.88
2023-02-06T15:27:26.889Z,5.72
2023-02-06T15:29:53.774Z,6.43
2023-02-06T15:32:23.864Z,5.88
2023-02-06T15:34:50.643Z,6.47
2023-02-06T15:37:22.746Z,5.55
2023-02-06T15:39:49.824Z,5.53
2023-02-06T15:42:16.774Z,6.15
2023-02-06T15:44:43.538Z,6.65
2023-02-06T15:47:13.983Z,4.78
2023-02-06T15:49:43.393Z,5.50
2023-02-06T15:52:12.030Z,5.20
2023-02-06T15:54:45.000Z,5.95
2023-02-06T15:57:29.171Z,5.43
2023-02-06T15:59:59.123Z,5.70
2023-02-06T16:02:33.405Z,6.00
2023-02-06T16:05:01.021Z,5.35
2023-02-06T16:07:30.762Z,6.05
2023-02-06T16:10:07.670Z,6.00
2023-02-06T16:12:40.070Z,5.55
2023-02-06T16:15:25.209Z,5.38
2023-02-06T16:17:52.373Z,5.57
2023-02-06T16:20:51.169Z,6.10
2023-02-06T16:23:20.730Z,6.78
2023-02-06T16:25:50.333Z,7.22
2023-02-06T16:28:23.032Z,8.02
2023-02-06T16:31:02.361Z,7.72
2023-02-06T16:33:33.476Z,7.20
2023-02-06T16:36:00.329Z,7.70
2023-02-06T16:38:26.990Z,7.97
2023-02-06T16:40:53.857Z,7.90
2023-02-06T16:43:20.415Z,7.85
2023-02-06T16:45:47.983Z,7.50
2023-02-06T16:48:17.358Z,7.97
2023-02-06T16:50:45.100Z,8.02
2023-02-06T16:53:23.666Z,6.97
2023-02-06T16:55:50.680Z,7.07
2023-02-06T16:58:23.032Z,9.15
2023-02-06T17:00:50.416Z,9.48
2023-02-06T17:03:18.034Z,9.05
2023-02-06T17:05:48.949Z,9.70
2023-02-06T17:08:19.709Z,9.25
2023-02-06T17:10:46.990Z,9.10
2023-02-06T17:13:19.029Z,9.15
2023-02-06T17:15:49.588Z,9.95
2023-02-06T17:18:18.126Z,9.43
2023-02-06T17:23:12.573Z,8.13
2023-02-06T17:25:39.595Z,8.38
2023-02-06T17:28:07.682Z,7.55
2023-02-06T17:30:36.014Z,9.02
2023-02-06T17:35:29.320Z,8.73
2023-02-06T17:37:56.243Z,9.52
2023-02-06T17:40:29.478Z,9.55
2023-02-06T17:42:58.289Z,9.30
2023-02-06T17:45:25.756Z,8.45
2023-02-06T17:47:52.891Z,10.13
2023-02-06T17:50:22.505Z,9.85
2023-02-06T17:52:49.170Z,8.68
2023-02-06T17:55:16.730Z,9.20
2023-02-06T17:57:43.363Z,10.48
2023-02-06T18:00:14.055Z,12.88
2023-02-06T18:02:40.649Z,14.40
2023-02-06T18:05:08.078Z,14.13
2023-02-06T18:07:35.118Z,13.63
2023-02-06T18:10:01.710Z,12.60
2023-02-06T18:12:28.346Z,11.07
2023-02-06T18:14:54.954Z,11.00
2023-02-06T18:17:21.745Z,10.27
2023-02-06T18:19:49.802Z,9.98
2023-02-06T18:22:18.753Z,10.60
2023-02-06T18:24:45.666Z,11.38
2023-02-06T18:27:12.828Z,10.55
2023-02-06T18:29:50.206Z,12.55
2023-02-06T18:32:18.268Z,13.15
2023-02-06T18:34:44.978Z,12.95
2023-02-06T18:37:11.658Z,11.15
2023-02-06T18:39:39.265Z,9.88
2023-02-06T18:42:24.403Z,10.52
2023-02-06T18:44:50.956Z,11.27
2023-02-06T18:47:18.861Z,11.20
2023-02-06T18:49:45.627Z,11.65
2023-02-06T18:52:12.343Z,11.07
2023-02-06T18:54:39.577Z,10.90
2023-02-06T18:57:06.578Z,12.15
2023-02-06T18:59:33.323Z,10.90
2023-02-06T19:02:00.133Z,12.38
2023-02-06T19:04:26.769Z,10.48
2023-02-06T19:06:53.344Z,10.57
2023-02-06T19:09:20.194Z,10.57
2023-02-06T19:11:47.797Z,10.63
2023-02-06T19:14:16.945Z,11.20
2023-02-06T19:16:47.338Z,8.90
2023-02-06T19:19:14.535Z,8.80
2023-02-06T19:21:41.164Z,9.50
2023-02-06T19:24:08.230Z,10.35
2023-02-06T19:26:34.889Z,9.57
2023-02-06T19:29:01.761Z,10.30
2023-02-06T19:31:28.462Z,9.07
2023-02-06T19:33:58.012Z,10.50
2023-02-06T19:36:25.908Z,11.25
2023-02-06T19:39:01.027Z,11.18
2023-02-06T19:41:29.589Z,12.45
2023-02-06T19:43:57.503Z,11.80
2023-02-06T19:46:25.832Z,11.70
2023-02-06T19:48:52.772Z,12.38
2023-02-06T19:51:25.576Z,10.95
2023-02-06T19:53:53.443Z,11.82
2023-02-06T19:56:30.945Z,11.75
2023-02-06T19:58:59.774Z,12.15
2023-02-06T20:01:29.550Z,12.63
2023-02-06T20:03:57.201Z,11.82
2023-02-06T20:06:23.859Z,11.98
2023-02-06T20:08:50.529Z,11.13
2023-02-06T20:11:19.323Z,12.23
2023-02-06T20:13:47.262Z,12.50
2023-02-06T20:16:17.116Z,12.27
2023-02-06T20:18:44.147Z,12.10
2023-02-06T20:21:35.415Z,12.60
2023-02-06T20:24:05.503Z,12.68
2023-02-06T20:26:34.833Z,13.65
2023-02-06T20:29:02.086Z,12.43
2023-02-06T20:31:28.993Z,11.65
2023-02-06T20:33:56.133Z,12.73
2023-02-06T20:36:24.744Z,11.90
2023-02-06T20:38:59.036Z,12.27
2023-02-06T20:41:28.689Z,12.07
2023-02-06T20:43:59.771Z,11.77
2023-02-06T20:46:29.691Z,12.13
2023-02-06T20:49:00.669Z,11.52
2023-02-06T20:51:27.735Z,10.32
2023-02-06T20:53:54.616Z,10.73
2023-02-06T20:56:21.998Z,10.88
2023-02-06T20:58:52.119Z,10.98
2023-02-06T21:01:27.052Z,10.52
2023-02-06T21:03:59.803Z,10.70
2023-02-06T21:06:28.071Z,11.15
2023-02-06T21:08:59.941Z,12.93
2023-02-06T21:11:32.724Z,11.93
2023-02-06T21:14:01.622Z,11.63
2023-02-06T21:16:29.385Z,11.32
2023-02-06T21:18:57.338Z,10.77
2023-02-06T21:21:25.759Z,11.48
2023-02-06T21:26:18.922Z,10.55
2023-02-06T21:28:46.334Z,10.95
2023-02-06T21:31:16.158Z,11.13
2023-02-06T21:33:43.032Z,10.68
2023-02-06T21:36:09.703Z,12.48
2023-02-06T21:38:37.047Z,11.88
2023-02-06T21:41:13.105Z,12.88
2023-02-06T21:43:40.254Z,12.90
2023-02-06T21:46:07.228Z,11.27
2023-02-06T21:48:34.942Z,11.30
2023-02-06T21:51:14.813Z,11.18
2023-02-06T21:53:42.677Z,10.70
2023-02-06T21:56:18.888Z,10.52
2023-02-06T21:58:45.558Z,11.27
2023-02-06T22:01:22.468Z,11.13
2023-02-06T22:03:49.190Z,10.90
2023-02-06T22:06:16.572Z,10.02
2023-02-06T22:08:45.978Z,11.43
2023-02-06T22:11:16.574Z,10.98
2023-02-06T22:13:44.202Z,10.25
2023-02-06T22:16:12.379Z,10.20
2023-02-06T22:18:39.596Z,10.32
2023-02-06T22:21:08.921Z,10.52
2023-02-06T22:23:35.643Z,10.50
2023-02-06T22:26:02.570Z,9.40
2023-02-06T22:28:29.165Z,10.80
2023-02-06T22:30:55.906Z,10.88
2023-02-06T22:33:22.513Z,11.35
2023-02-06T22:35:49.079Z,10.75
2023-02-06T22:38:15.702Z,10.48
2023-02-06T22:40:42.294Z,10.70
2023-02-06T22:43:08.832Z,11.25
2023-02-06T22:45:35.734Z,10.23
2023-02-06T22:48:02.464Z,11.13
2023-02-06T22:50:29.026Z,11.10
2023-02-06T22:53:14.065Z,10.73
2023-02-06T22:55:59.125Z,10.75
2023-02-06T22:58:25.681Z,10.98
2023-02-06T23:00:52.261Z,9.82
2023-02-06T23:03:18.865Z,10.27
2023-02-06T23:05:45.446Z,9.90
2023-02-06T23:08:12.043Z,10.35
2023-02-06T23:10:38.614Z,10.57
2023-02-06T23:13:05.254Z,10.50
2023-02-06T23:15:31.835Z,10.52
2023-02-06T23:17:58.683Z,9.90
2023-02-06T23:20:25.322Z,10.70
2023-02-06T23:22:51.899Z,10.10
2023-02-06T23:25:18.494Z,10.55
2023-02-06T23:27:45.077Z,9.52
2023-02-06T23:30:12.437Z,10.23
2023-02-06T23:32:39.010Z,9.55
2023-02-06T23:35:05.824Z,10.13
2023-02-06T23:37:32.394Z,10.23
2023-02-06T23:39:59.046Z,9.40
2023-02-06T23:42:25.694Z,10.23
2023-02-06T23:44:52.302Z,9.90
2023-02-06T23:47:20.162Z,9.32
2023-02-06T23:49:46.720Z,9.02
2023-02-06T23:52:13.554Z,9.85
2023-02-06T23:54:40.134Z,9.18
2023-02-06T23:57:06.717Z,9.82
2023-02-06T23:59:33.302Z,9.90
